createdAt,value
2018-05-29T00:01:10.248Z,21.70
2018-05-29T00:03:40.821Z,21.60
2018-05-29T00:06:09.359Z,21.50
2018-05-29T00:08:38.507Z,21.40
2018-05-29T00:11:07.829Z,21.30
2018-05-29T00:13:36.847Z,21.30
2018-05-29T00:16:07.967Z,21.20
2018-05-29T00:18:36.833Z,21.20
2018-05-29T00:21:04.537Z,21.10
2018-05-29T00:23:33.819Z,21.00
2018-05-29T00:26:02.652Z,20.90
2018-05-29T00:28:32.219Z,20.90
2018-05-29T00:31:02.478Z,20.70
2018-05-29T00:33:31.118Z,20.70
2018-05-29T00:36:00.160Z,20.70
2018-05-29T00:38:29.322Z,20.60
2018-05-29T00:40:59.577Z,20.50
2018-05-29T00:43:27.755Z,20.50
2018-05-29T00:45:57.021Z,20.50
2018-05-29T00:48:25.951Z,20.40
2018-05-29T00:50:55.613Z,20.40
2018-05-29T00:53:24.754Z,20.40
2018-05-29T00:55:53.730Z,20.30
2018-05-29T00:58:22.702Z,20.20
2018-05-29T01:00:53.350Z,20.20
2018-05-29T01:03:22.858Z,20.20
2018-05-29T01:05:52.231Z,20.10
2018-05-29T01:08:22.332Z,20.00
2018-05-29T01:10:51.454Z,19.90
2018-05-29T01:13:21.173Z,19.90
2018-05-29T01:15:50.280Z,19.90
2018-05-29T01:18:19.778Z,19.80
2018-05-29T01:20:49.444Z,19.80
2018-05-29T01:23:19.372Z,19.70
2018-05-29T01:25:48.674Z,19.70
2018-05-29T01:28:18.307Z,19.70
2018-05-29T01:30:48.862Z,19.50
2018-05-29T01:33:17.788Z,19.50
2018-05-29T01:35:46.940Z,19.50
2018-05-29T01:38:16.836Z,19.50
2018-05-29T01:40:46.548Z,19.50
2018-05-29T01:43:14.958Z,19.50
2018-05-29T01:45:45.247Z,19.50
2018-05-29T01:48:14.253Z,19.50
2018-05-29T01:50:43.528Z,19.50
2018-05-29T01:53:11.251Z,19.40
2018-05-29T01:55:38.899Z,19.50
2018-05-29T01:58:08.951Z,19.40
2018-05-29T02:00:37.346Z,19.30
2018-05-29T02:03:05.113Z,19.30
2018-05-29T02:05:33.745Z,19.30
2018-05-29T02:08:03.466Z,19.20
2018-05-29T02:10:32.209Z,19.20
2018-05-29T02:13:01.586Z,19.10
2018-05-29T02:15:32.829Z,19.10
2018-05-29T02:18:02.291Z,19.10
2018-05-29T02:20:32.090Z,19.10
2018-05-29T02:23:00.805Z,19.10
2018-05-29T02:25:30.129Z,19.10
2018-05-29T02:27:59.323Z,19.00
2018-05-29T02:30:28.873Z,19.10
2018-05-29T02:32:58.738Z,19.10
2018-05-29T02:35:26.364Z,19.10
2018-05-29T02:37:54.284Z,19.10
2018-05-29T02:40:23.929Z,19.00
2018-05-29T02:42:53.270Z,19.00
2018-05-29T02:45:22.251Z,18.90
2018-05-29T02:47:51.464Z,18.90
2018-05-29T02:50:20.941Z,18.90
2018-05-29T02:52:50.729Z,18.90
2018-05-29T02:55:20.303Z,18.90
2018-05-29T02:57:49.673Z,18.90
2018-05-29T03:00:20.228Z,18.80
2018-05-29T03:02:48.998Z,18.80
2018-05-29T03:05:17.505Z,18.70
2018-05-29T03:07:45.194Z,18.80
2018-05-29T03:10:14.405Z,18.80
2018-05-29T03:12:43.141Z,18.70
2018-05-29T03:15:10.867Z,18.80
2018-05-29T03:17:38.752Z,18.70
2018-05-29T03:20:07.489Z,18.60
2018-05-29T03:22:38.451Z,18.60
2018-05-29T03:25:08.550Z,18.50
2018-05-29T03:27:39.279Z,18.50
2018-05-29T03:30:09.106Z,18.40
2018-05-29T03:32:38.484Z,18.40
2018-05-29T03:35:09.029Z,18.30
2018-05-29T03:37:37.456Z,18.40
2018-05-29T03:40:05.154Z,18.40
2018-05-29T03:42:33.735Z,18.40
2018-05-29T03:45:01.412Z,18.40
2018-05-29T03:47:30.008Z,18.40
2018-05-29T03:50:00.862Z,18.40
2018-05-29T03:52:30.466Z,18.40
2018-05-29T03:55:01.485Z,18.40
2018-05-29T03:57:31.307Z,18.40
2018-05-29T04:00:00.840Z,18.30
2018-05-29T04:02:29.246Z,18.30
2018-05-29T04:04:59.186Z,18.30
2018-05-29T04:07:29.482Z,18.30
2018-05-29T04:10:00.115Z,18.40
2018-05-29T04:12:28.386Z,18.40
2018-05-29T04:14:57.489Z,18.40
2018-05-29T04:17:28.716Z,18.40
2018-05-29T04:20:00.310Z,18.30
2018-05-29T04:22:29.990Z,18.30
2018-05-29T04:25:00.076Z,18.30
2018-05-29T04:27:28.966Z,18.40
2018-05-29T04:29:58.773Z,18.40
2018-05-29T04:32:27.067Z,18.40
2018-05-29T04:34:55.245Z,18.40
2018-05-29T04:37:24.605Z,18.50
2018-05-29T04:39:54.067Z,18.40
2018-05-29T04:42:21.753Z,18.50
2018-05-29T04:44:50.232Z,18.50
2018-05-29T04:47:20.877Z,18.50
2018-05-29T04:49:49.050Z,18.50
2018-05-29T04:52:17.084Z,18.60
2018-05-29T04:54:45.162Z,18.60
2018-05-29T04:57:17.119Z,18.60
2018-05-29T04:59:45.358Z,18.60
2018-05-29T05:02:15.637Z,18.60
2018-05-29T05:04:43.321Z,18.70
2018-05-29T05:07:11.064Z,18.70
2018-05-29T05:09:39.650Z,18.80
2018-05-29T05:12:07.789Z,18.80
2018-05-29T05:14:36.428Z,18.80
2018-05-29T05:17:04.075Z,18.90
2018-05-29T05:19:31.787Z,19.00
2018-05-29T05:22:04.772Z,19.10
2018-05-29T05:24:33.429Z,19.20
2018-05-29T05:27:03.427Z,19.20
2018-05-29T05:29:33.490Z,19.30
2018-05-29T05:32:01.840Z,19.30
2018-05-29T05:34:31.524Z,19.50
2018-05-29T05:37:00.665Z,19.50
2018-05-29T05:39:29.003Z,19.50
2018-05-29T05:41:58.945Z,19.60
2018-05-29T05:44:27.663Z,19.60
2018-05-29T05:46:56.146Z,19.70
2018-05-29T05:49:24.028Z,19.70
2018-05-29T05:51:53.167Z,19.80
2018-05-29T05:54:22.392Z,19.80
2018-05-29T05:56:50.249Z,19.90
2018-05-29T05:59:18.018Z,20.00
2018-05-29T06:01:47.897Z,20.00
2018-05-29T06:04:17.157Z,20.10
2018-05-29T06:06:47.676Z,20.20
2018-05-29T06:09:15.608Z,20.30
2018-05-29T06:11:43.294Z,20.40
2018-05-29T06:14:11.774Z,20.40
2018-05-29T06:16:43.381Z,20.60
2018-05-29T06:19:12.789Z,20.60
2018-05-29T06:21:40.891Z,20.60
2018-05-29T06:24:09.186Z,20.70
2018-05-29T06:26:36.972Z,20.80
2018-05-29T06:29:04.779Z,20.90
2018-05-29T06:31:32.870Z,20.90
2018-05-29T06:34:01.911Z,21.20
2018-05-29T06:36:30.227Z,21.10
2018-05-29T06:38:58.165Z,21.20
2018-05-29T06:41:26.581Z,21.40
2018-05-29T06:43:54.425Z,21.50
2018-05-29T06:46:24.568Z,21.50
2018-05-29T06:48:58.094Z,21.70
2018-05-29T06:51:26.063Z,21.80
2018-05-29T06:53:55.849Z,21.80
2018-05-29T06:56:27.784Z,22.00
2018-05-29T06:58:57.052Z,22.00
2018-05-29T07:01:24.997Z,22.00
2018-05-29T07:03:53.984Z,22.10
2018-05-29T07:06:23.900Z,22.30
2018-05-29T07:08:52.772Z,22.30
2018-05-29T07:11:21.091Z,22.40
2018-05-29T07:13:49.598Z,22.40
2018-05-29T07:16:18.481Z,22.50
2018-05-29T07:18:47.372Z,22.60
2018-05-29T07:21:15.634Z,22.80
2018-05-29T07:23:43.991Z,22.90
2018-05-29T07:26:13.834Z,23.10
2018-05-29T07:28:44.755Z,23.20
2018-05-29T07:31:12.528Z,23.30
2018-05-29T07:33:40.240Z,23.40
2018-05-29T07:36:11.166Z,23.40
2018-05-29T07:38:41.641Z,23.50
2018-05-29T07:41:10.109Z,23.50
2018-05-29T07:43:38.255Z,23.50
2018-05-29T07:46:07.359Z,23.70
2018-05-29T07:48:37.638Z,24.00
2018-05-29T07:51:06.237Z,24.00
2018-05-29T07:53:34.675Z,24.10
2018-05-29T07:56:04.305Z,24.30
2018-05-29T07:58:33.452Z,24.60
2018-05-29T08:01:03.645Z,24.60
2018-05-29T08:03:33.379Z,24.70
2018-05-29T08:06:01.630Z,24.70
2018-05-29T08:08:30.991Z,24.80
2018-05-29T08:10:59.088Z,25.00
2018-05-29T08:13:30.860Z,25.10
2018-05-29T08:15:58.988Z,25.20
2018-05-29T08:18:27.381Z,25.20
2018-05-29T08:20:55.986Z,25.40
2018-05-29T08:23:24.091Z,25.50
2018-05-29T08:25:52.980Z,25.60
2018-05-29T08:28:21.312Z,25.70
2018-05-29T08:30:50.368Z,25.80
2018-05-29T08:33:19.548Z,25.70
2018-05-29T08:35:51.649Z,25.70
2018-05-29T08:38:20.488Z,25.90
2018-05-29T08:40:49.691Z,26.00
2018-05-29T08:43:19.243Z,26.20
2018-05-29T08:45:50.021Z,26.40
2018-05-29T08:48:22.697Z,26.30
2018-05-29T08:50:53.025Z,26.50
2018-05-29T08:53:27.724Z,26.50
2018-05-29T08:55:56.518Z,26.50
2018-05-29T08:58:26.177Z,26.50
2018-05-29T09:00:54.287Z,26.10
2018-05-29T09:03:23.416Z,26.20
2018-05-29T09:05:52.973Z,26.20
2018-05-29T09:08:20.810Z,26.30
2018-05-29T09:10:49.571Z,26.10
2018-05-29T09:13:17.881Z,26.00
2018-05-29T09:15:47.983Z,26.00
2018-05-29T09:18:16.768Z,25.90
2018-05-29T09:20:45.199Z,26.00
2018-05-29T09:23:13.474Z,26.20
2018-05-29T09:25:41.928Z,26.30
2018-05-29T09:28:12.117Z,26.60
2018-05-29T09:30:40.240Z,26.60
2018-05-29T09:33:08.805Z,26.90
2018-05-29T09:35:37.593Z,27.10
2018-05-29T09:38:06.161Z,27.30
2018-05-29T09:40:34.629Z,27.50
2018-05-29T09:43:03.501Z,27.70
2018-05-29T09:45:32.398Z,28.00
2018-05-29T09:48:01.636Z,28.20
2018-05-29T09:50:30.085Z,28.20
2018-05-29T09:55:41.065Z,28.00
2018-05-29T09:58:10.021Z,28.00
2018-05-29T10:00:40.344Z,28.00
2018-05-29T10:03:09.036Z,28.20
2018-05-29T10:05:38.713Z,28.40
2018-05-29T10:08:10.499Z,29.30
2018-05-29T10:10:38.818Z,29.20
2018-05-29T10:15:44.471Z,29.20
2018-05-29T10:18:13.367Z,29.10
2018-05-29T10:20:42.301Z,29.10
2018-05-29T10:23:10.020Z,29.20
2018-05-29T10:25:37.816Z,29.30
2018-05-29T10:28:06.263Z,29.10
2018-05-29T10:30:34.712Z,29.00
2018-05-29T10:33:02.964Z,28.90
2018-05-29T10:35:31.346Z,29.00
2018-05-29T10:38:02.117Z,28.90
2018-05-29T10:40:30.453Z,29.00
2018-05-29T10:42:59.422Z,29.30
2018-05-29T10:45:28.373Z,30.00
2018-05-29T10:47:57.009Z,30.70
2018-05-29T10:50:26.128Z,31.00
2018-05-29T10:52:54.677Z,31.20
2018-05-29T10:55:22.874Z,32.10
2018-05-29T10:57:51.751Z,32.30
2018-05-29T11:00:21.049Z,32.80
2018-05-29T11:02:51.122Z,32.80
2018-05-29T11:05:22.948Z,32.70
2018-05-29T11:07:51.987Z,33.10
2018-05-29T11:10:26.136Z,33.40
2018-05-29T11:12:53.959Z,33.60
2018-05-29T11:15:22.232Z,33.60
2018-05-29T11:17:50.082Z,33.50
2018-05-29T11:20:19.210Z,33.20
2018-05-29T11:22:47.038Z,32.80
2018-05-29T11:25:15.352Z,32.70
2018-05-29T11:27:45.781Z,32.80
2018-05-29T11:30:13.568Z,33.00
2018-05-29T11:32:41.534Z,33.20
2018-05-29T11:35:15.033Z,33.90
2018-05-29T11:37:47.953Z,33.80
2018-05-29T11:40:15.798Z,33.90
2018-05-29T11:42:44.336Z,34.60
2018-05-29T11:45:15.406Z,35.30
2018-05-29T11:47:43.235Z,36.00
2018-05-29T11:50:11.084Z,36.40
2018-05-29T11:52:38.947Z,36.70
2018-05-29T11:55:07.512Z,36.80
2018-05-29T11:57:36.297Z,36.80
2018-05-29T12:00:04.056Z,37.10
2018-05-29T12:02:31.997Z,36.90
2018-05-29T12:05:02.149Z,36.50
2018-05-29T12:07:29.816Z,36.50
2018-05-29T12:09:57.716Z,36.00
2018-05-29T12:12:30.237Z,35.00
2018-05-29T12:14:59.340Z,34.60
2018-05-29T12:17:28.335Z,34.20
2018-05-29T12:19:58.272Z,34.50
2018-05-29T12:22:28.470Z,35.00
2018-05-29T12:24:56.231Z,35.00
2018-05-29T12:27:23.949Z,34.80
2018-05-29T12:29:56.011Z,35.00
2018-05-29T12:32:23.969Z,35.40
2018-05-29T12:34:52.753Z,35.50
2018-05-29T12:37:25.650Z,35.60
2018-05-29T12:39:54.237Z,35.70
2018-05-29T12:42:22.484Z,36.10
2018-05-29T12:44:51.710Z,36.30
2018-05-29T12:47:21.699Z,36.30
2018-05-29T12:49:51.795Z,37.50
2018-05-29T12:52:20.474Z,38.20
2018-05-29T12:54:48.702Z,38.50
2018-05-29T12:57:18.396Z,36.90
2018-05-29T12:59:48.091Z,36.90
2018-05-29T13:02:16.721Z,35.70
2018-05-29T13:04:44.501Z,35.60
2018-05-29T13:07:14.220Z,34.90
2018-05-29T13:09:45.496Z,33.60
2018-05-29T13:12:13.310Z,32.30
2018-05-29T13:14:41.189Z,31.80
2018-05-29T13:17:15.924Z,31.40
2018-05-29T13:19:48.139Z,31.00
2018-05-29T13:22:20.272Z,30.70
2018-05-29T13:24:49.459Z,30.40
2018-05-29T13:27:18.803Z,30.10
2018-05-29T13:29:55.239Z,29.80
2018-05-29T13:32:23.010Z,29.70
2018-05-29T13:34:52.019Z,29.50
2018-05-29T13:37:21.614Z,29.30
2018-05-29T13:39:49.469Z,29.30
2018-05-29T13:42:17.231Z,29.00
2018-05-29T13:44:45.020Z,28.70
2018-05-29T13:47:14.009Z,28.50
2018-05-29T13:49:43.156Z,28.40
2018-05-29T13:52:11.850Z,28.40
2018-05-29T13:54:39.597Z,28.20
2018-05-29T13:57:07.276Z,28.10
2018-05-29T13:59:35.409Z,28.10
2018-05-29T14:02:04.226Z,26.50
2018-05-29T14:04:31.982Z,26.40
2018-05-29T14:06:59.766Z,25.40
2018-05-29T14:09:27.589Z,24.30
2018-05-29T14:12:00.891Z,24.00
2018-05-29T14:14:29.481Z,23.50
2018-05-29T14:16:57.997Z,23.30
2018-05-29T14:19:25.742Z,23.30
2018-05-29T14:21:53.707Z,23.20
2018-05-29T14:24:21.457Z,23.20
2018-05-29T14:27:00.045Z,23.50
2018-05-29T14:29:32.483Z,23.40
2018-05-29T14:32:00.476Z,23.60
2018-05-29T14:34:28.369Z,23.70
2018-05-29T14:36:59.587Z,23.80
2018-05-29T14:39:28.441Z,23.70
2018-05-29T14:41:56.196Z,23.80
2018-05-29T14:44:24.035Z,23.70
2018-05-29T14:46:53.759Z,24.00
2018-05-29T14:49:22.841Z,24.00
2018-05-29T14:51:54.606Z,24.40
2018-05-29T14:54:26.389Z,24.60
2018-05-29T14:56:54.233Z,24.90
2018-05-29T14:59:22.792Z,25.40
2018-05-29T15:01:51.188Z,25.40
2018-05-29T15:04:26.563Z,25.60
2018-05-29T15:06:56.365Z,25.60
2018-05-29T15:09:24.240Z,25.60
2018-05-29T15:11:51.976Z,25.50
2018-05-29T15:14:21.759Z,25.00
2018-05-29T15:16:53.770Z,24.70
2018-05-29T15:19:21.656Z,24.60
2018-05-29T15:21:49.335Z,24.40
2018-05-29T15:24:22.649Z,24.30
2018-05-29T15:26:50.477Z,24.20
2018-05-29T15:29:18.259Z,24.10
2018-05-29T15:31:46.412Z,24.00
2018-05-29T15:34:15.209Z,24.00
2018-05-29T15:36:44.185Z,24.00
2018-05-29T15:39:13.160Z,24.00
2018-05-29T15:41:41.120Z,24.00
2018-05-29T15:44:08.898Z,23.90
2018-05-29T15:46:38.700Z,23.80
2018-05-29T15:49:08.652Z,23.50
2018-05-29T15:51:37.123Z,23.50
2018-05-29T15:54:05.069Z,23.40
2018-05-29T15:56:37.636Z,23.50
2018-05-29T15:59:07.055Z,23.50
2018-05-29T16:01:35.490Z,23.40
2018-05-29T16:04:04.681Z,23.50
2018-05-29T16:06:32.449Z,23.50
2018-05-29T16:09:00.339Z,23.40
2018-05-29T16:11:28.256Z,23.30
2018-05-29T16:14:00.393Z,23.30
2018-05-29T16:16:30.389Z,23.20
2018-05-29T16:19:01.175Z,23.20
2018-05-29T16:21:32.435Z,23.30
2018-05-29T16:24:06.568Z,23.40
2018-05-29T16:26:34.404Z,23.40
2018-05-29T16:29:02.198Z,23.20
2018-05-29T16:31:32.244Z,23.10
2018-05-29T16:34:01.932Z,23.00
2018-05-29T16:36:31.968Z,22.90
2018-05-29T16:39:01.152Z,22.70
2018-05-29T16:41:29.512Z,22.40
2018-05-29T16:44:00.727Z,22.20
2018-05-29T16:46:30.151Z,22.10
2018-05-29T16:48:59.754Z,22.00
2018-05-29T16:51:30.172Z,22.00
2018-05-29T16:54:00.765Z,21.80
2018-05-29T16:56:32.340Z,21.80
2018-05-29T16:59:00.076Z,21.80
2018-05-29T17:01:28.008Z,21.80
2018-05-29T17:03:57.954Z,21.70
2018-05-29T17:06:29.035Z,21.70
2018-05-29T17:08:56.836Z,21.70
2018-05-29T17:11:24.565Z,21.60
2018-05-29T17:13:52.255Z,21.60
2018-05-29T17:16:20.953Z,21.60
2018-05-29T17:18:48.615Z,21.60
2018-05-29T17:21:16.278Z,21.60
2018-05-29T17:23:43.941Z,21.60
2018-05-29T17:26:13.642Z,21.60
2018-05-29T17:28:41.338Z,21.60
2018-05-29T17:31:14.960Z,21.60
2018-05-29T17:33:42.619Z,21.60
2018-05-29T17:36:10.319Z,21.70
2018-05-29T17:38:43.309Z,21.70
2018-05-29T17:41:11.753Z,21.90
2018-05-29T17:43:39.471Z,21.90
2018-05-29T17:46:13.755Z,21.90
2018-05-29T17:48:43.549Z,22.00
2018-05-29T17:51:14.200Z,22.20
2018-05-29T17:53:45.513Z,22.20
2018-05-29T17:56:13.354Z,22.20
2018-05-29T17:58:41.067Z,22.20
2018-05-29T18:01:15.673Z,22.10
2018-05-29T18:03:43.395Z,22.10
2018-05-29T18:06:11.127Z,22.20
2018-05-29T18:08:40.498Z,22.20
2018-05-29T18:11:12.042Z,22.10
2018-05-29T18:13:41.685Z,22.10
2018-05-29T18:16:15.019Z,22.00
2018-05-29T18:18:45.752Z,22.00
2018-05-29T18:21:13.457Z,21.90
2018-05-29T18:23:41.225Z,21.70
2018-05-29T18:26:14.054Z,21.60
2018-05-29T18:28:50.709Z,21.60
2018-05-29T18:31:26.227Z,21.60
2018-05-29T18:33:56.629Z,21.60
2018-05-29T18:36:26.700Z,21.70
2018-05-29T18:38:57.773Z,21.70
2018-05-29T18:41:27.885Z,21.60
2018-05-29T18:44:00.423Z,21.60
2018-05-29T18:46:31.772Z,21.50
2018-05-29T18:48:59.601Z,21.50
2018-05-29T18:51:27.511Z,21.40
2018-05-29T18:53:59.677Z,21.40
2018-05-29T18:56:27.476Z,21.30
2018-05-29T18:58:55.298Z,21.20
2018-05-29T19:01:24.202Z,21.10
2018-05-29T19:03:58.765Z,21.10
2018-05-29T19:06:26.488Z,21.00
2018-05-29T19:08:54.205Z,21.00
2018-05-29T19:11:23.366Z,21.00
2018-05-29T19:13:51.104Z,21.00
2018-05-29T19:16:18.880Z,21.00
2018-05-29T19:18:51.438Z,21.00
2018-05-29T19:21:24.176Z,20.90
2018-05-29T19:23:51.883Z,21.00
2018-05-29T19:26:19.715Z,20.90
2018-05-29T19:28:51.365Z,20.90
2018-05-29T19:31:19.095Z,20.90
2018-05-29T19:33:47.096Z,20.90
2018-05-29T19:36:14.860Z,20.90
2018-05-29T19:38:42.569Z,21.00
2018-05-29T19:41:13.451Z,21.00
2018-05-29T19:43:46.851Z,21.00
2018-05-29T19:46:19.954Z,21.00
2018-05-29T19:48:47.744Z,21.10
2018-05-29T19:51:15.446Z,21.00
2018-05-29T19:53:43.269Z,21.10
2018-05-29T19:56:14.742Z,21.10
2018-05-29T19:58:42.635Z,21.10
2018-05-29T20:01:10.352Z,21.00
2018-05-29T20:03:41.359Z,21.00
2018-05-29T20:06:08.997Z,21.00
2018-05-29T20:08:36.844Z,21.00
2018-05-29T20:11:04.525Z,21.00
2018-05-29T20:13:32.320Z,21.00
2018-05-29T20:16:00.830Z,21.00
2018-05-29T20:18:28.511Z,21.00
2018-05-29T20:21:01.045Z,21.00
2018-05-29T20:23:36.335Z,21.00
2018-05-29T20:26:04.051Z,21.00
2018-05-29T20:28:31.831Z,21.00
2018-05-29T20:31:00.237Z,20.90
2018-05-29T20:33:27.950Z,20.90
2018-05-29T20:35:55.649Z,20.90
2018-05-29T20:38:23.318Z,20.90
2018-05-29T20:40:51.013Z,20.90
2018-05-29T20:43:23.399Z,20.90
2018-05-29T20:45:54.053Z,20.90
2018-05-29T20:48:21.950Z,20.90
2018-05-29T20:50:49.745Z,20.90
2018-05-29T20:53:22.182Z,20.90
2018-05-29T20:55:50.166Z,20.90
2018-05-29T20:58:18.249Z,20.90
2018-05-29T21:00:50.520Z,21.00
2018-05-29T21:03:18.271Z,20.90
2018-05-29T21:05:45.925Z,20.90
2018-05-29T21:08:14.866Z,20.80
2018-05-29T21:10:45.440Z,20.80
2018-05-29T21:13:19.472Z,20.70
2018-05-29T21:15:52.223Z,20.70
2018-05-29T21:18:25.766Z,20.70
2018-05-29T21:20:57.059Z,20.60
2018-05-29T21:23:29.963Z,20.70
2018-05-29T21:26:02.828Z,20.60
2018-05-29T21:28:33.200Z,20.60
2018-05-29T21:31:05.226Z,20.50
2018-05-29T21:33:35.971Z,20.50
2018-05-29T21:36:09.811Z,20.40
2018-05-29T21:38:40.767Z,20.30
2018-05-29T21:41:11.995Z,20.20
2018-05-29T21:43:42.776Z,20.10
2018-05-29T21:46:14.869Z,20.20
2018-05-29T21:48:46.148Z,20.20
2018-05-29T21:51:18.999Z,20.10
2018-05-29T21:53:46.799Z,20.10
2018-05-29T21:56:14.509Z,20.20
2018-05-29T21:58:47.060Z,20.10
2018-05-29T22:01:17.027Z,20.10
2018-05-29T22:03:44.768Z,20.10
2018-05-29T22:06:17.149Z,20.10
2018-05-29T22:08:49.131Z,20.10
2018-05-29T22:11:23.548Z,20.00
2018-05-29T22:13:55.466Z,19.90
2018-05-29T22:16:28.108Z,19.80
2018-05-29T22:18:55.808Z,19.80
2018-05-29T22:21:24.393Z,19.80
2018-05-29T22:23:57.481Z,19.70
2018-05-29T22:26:29.135Z,19.80
2018-05-29T22:29:01.939Z,19.80
2018-05-29T22:31:32.204Z,19.80
2018-05-29T22:34:03.976Z,19.80
2018-05-29T22:39:09.312Z,19.90
2018-05-29T22:41:37.048Z,19.90
2018-05-29T22:44:07.687Z,19.90
2018-05-29T22:46:35.461Z,20.00
2018-05-29T22:49:03.108Z,20.00
2018-05-29T22:51:35.558Z,20.10
2018-05-29T22:54:07.133Z,20.00
2018-05-29T22:56:40.533Z,20.10
2018-05-29T22:59:08.253Z,20.10
2018-05-29T23:01:35.933Z,20.10
2018-05-29T23:04:07.997Z,20.10
2018-05-29T23:06:40.368Z,20.10
2018-05-29T23:09:10.937Z,20.10
2018-05-29T23:11:38.687Z,20.10
2018-05-29T23:14:06.396Z,20.10
2018-05-29T23:16:40.871Z,20.00
2018-05-29T23:19:09.385Z,20.00
2018-05-29T23:21:37.064Z,20.00
2018-05-29T23:24:08.927Z,20.00
2018-05-29T23:26:39.848Z,20.00
2018-05-29T23:29:09.997Z,20.00
2018-05-29T23:31:39.258Z,20.00
2018-05-29T23:34:11.833Z,20.00
2018-05-29T23:36:46.132Z,19.90
2018-05-29T23:39:20.324Z,19.90
2018-05-29T23:41:53.090Z,19.90
2018-05-29T23:44:20.849Z,19.80
2018-05-29T23:46:48.548Z,19.70
2018-05-29T23:49:21.120Z,19.70
2018-05-29T23:51:54.215Z,19.70
2018-05-29T23:54:22.265Z,19.70
2018-05-29T23:56:49.882Z,19.60
2018-05-29T23:59:21.142Z,19.50
